logo
Search for airport 
image banner adimage banner adimage banner ad
image banner ad

FABATE - Bateleur

Located in , South Africa

ICAO - , IATA -

Data provided by Airmate  

General information

Coordinates: S29°8'20" E23°38'53"
Elevation is 3369 feet MSL.
 
View others Airports in Northern Cape

Operational data

Special qualification required
Current time UTC:
Current local time:
Weather at : - ( 0 km )
METAR: CYMT 230527Z AUTO 09006KT 3SM -SN BKN044 BKN055 BKN065 OVC078 M03/M04 A2965 RMK PRESFR SLP064
View NOTAMs / SUP AIP / TFR affecting this airport [VIEW]
Communications frequencies: [VIEW]

Runways:

RWY identifierQFULength (ft)Width (ft)SurfaceLDA (ft)
05110°754666GRASS
23290°754666GRASS
03442966SAND
21188°442966SAND

Airport contact information

Address: South Africa

Satellite view of FABATE